createdAt,value
2023-02-27T00:02:26.306Z,91.03
2023-02-27T00:04:54.552Z,91.18
2023-02-27T00:07:25.962Z,91.66
2023-02-27T00:09:53.234Z,91.56
2023-02-27T00:12:20.242Z,91.52
2023-02-27T00:14:46.753Z,91.65
2023-02-27T00:17:13.221Z,91.34
2023-02-27T00:19:39.709Z,91.68
2023-02-27T00:22:06.229Z,92.20
2023-02-27T00:24:32.791Z,91.36
2023-02-27T00:26:59.430Z,91.59
2023-02-27T00:29:25.912Z,91.75
2023-02-27T00:31:52.473Z,91.56
2023-02-27T00:34:19.040Z,91.74
2023-02-27T00:36:45.595Z,92.12
2023-02-27T00:39:12.163Z,92.00
2023-02-27T00:41:40.130Z,92.25
2023-02-27T00:44:06.662Z,92.24
2023-02-27T00:46:33.158Z,91.40
2023-02-27T00:48:59.735Z,92.15
2023-02-27T00:51:27.319Z,91.90
2023-02-27T00:53:55.190Z,92.19
2023-02-27T00:56:21.742Z,92.09
2023-02-27T00:58:48.565Z,92.24
2023-02-27T01:01:15.478Z,91.77
2023-02-27T01:03:42.092Z,91.60
2023-02-27T01:06:10.719Z,92.19
2023-02-27T01:08:37.278Z,91.57
2023-02-27T01:11:04.919Z,92.53
2023-02-27T01:13:31.740Z,92.67
2023-02-27T01:15:58.793Z,92.40
2023-02-27T01:18:25.466Z,92.64
2023-02-27T01:20:53.863Z,92.49
2023-02-27T01:23:21.374Z,91.90
2023-02-27T01:25:49.456Z,92.46
2023-02-27T01:28:16.944Z,92.10
2023-02-27T01:30:44.086Z,92.34
2023-02-27T01:33:14.168Z,92.39
2023-02-27T01:35:40.824Z,92.22
2023-02-27T01:38:07.624Z,92.24
2023-02-27T01:40:39.354Z,91.86
2023-02-27T01:43:10.275Z,92.25
2023-02-27T01:45:41.435Z,91.83
2023-02-27T01:48:18.554Z,92.69
2023-02-27T01:51:14.007Z,92.21
2023-02-27T01:53:44.971Z,92.05
2023-02-27T01:56:16.436Z,92.25
2023-02-27T01:58:43.351Z,91.96
2023-02-27T02:01:10.186Z,91.67
2023-02-27T02:03:50.166Z,91.74
2023-02-27T02:06:17.309Z,92.30
2023-02-27T02:08:46.647Z,92.29
2023-02-27T02:11:16.329Z,91.78
2023-02-27T02:13:45.214Z,92.17
2023-02-27T02:16:14.705Z,91.60
2023-02-27T02:18:59.904Z,91.35
2023-02-27T02:22:04.362Z,92.14
2023-02-27T02:25:12.433Z,91.23
2023-02-27T02:28:18.322Z,91.64
2023-02-27T02:31:00.646Z,92.00
2023-02-27T02:33:55.152Z,91.48
2023-02-27T02:36:29.297Z,91.43
2023-02-27T02:39:28.993Z,91.43
2023-02-27T02:42:03.175Z,90.35
2023-02-27T02:44:34.085Z,91.20
2023-02-27T02:47:26.418Z,90.76
2023-02-27T02:50:34.564Z,90.33
2023-02-27T02:53:13.335Z,89.91
2023-02-27T02:55:47.564Z,89.79
2023-02-27T02:58:48.488Z,90.48
2023-02-27T03:01:18.530Z,91.99
2023-02-27T03:03:54.984Z,91.51
2023-02-27T03:06:32.022Z,91.14
2023-02-27T03:09:05.588Z,90.66
2023-02-27T03:11:37.989Z,91.36
2023-02-27T03:14:40.380Z,90.87
2023-02-27T03:17:16.904Z,91.09
2023-02-27T03:20:19.234Z,91.17
2023-02-27T03:22:50.827Z,91.45
2023-02-27T03:25:18.038Z,90.74
2023-02-27T03:27:55.671Z,89.78
2023-02-27T03:30:22.256Z,89.95
2023-02-27T03:32:57.701Z,89.55
2023-02-27T03:35:40.182Z,88.77
2023-02-27T03:38:17.346Z,89.21
2023-02-27T03:40:49.147Z,88.99
2023-02-27T03:43:31.558Z,87.78
2023-02-27T03:46:12.702Z,86.85
2023-02-27T03:48:44.580Z,87.58
2023-02-27T03:51:15.520Z,88.49
2023-02-27T03:54:02.246Z,88.30
2023-02-27T03:56:42.960Z,88.01
2023-02-27T03:59:10.162Z,86.80
2023-02-27T04:01:43.780Z,85.75
2023-02-27T04:04:14.964Z,85.79
2023-02-27T04:07:23.314Z,86.12
2023-02-27T04:10:05.228Z,86.15
2023-02-27T04:12:52.734Z,86.08
2023-02-27T04:15:33.060Z,85.68
2023-02-27T04:18:23.915Z,85.09
2023-02-27T04:21:09.079Z,85.58
2023-02-27T04:23:43.978Z,85.27
2023-02-27T04:26:19.427Z,84.99
2023-02-27T04:29:06.221Z,84.75
2023-02-27T04:31:50.664Z,84.34
2023-02-27T04:34:28.076Z,83.42
2023-02-27T04:37:07.006Z,83.60
2023-02-27T04:39:39.589Z,83.24
2023-02-27T04:42:11.712Z,82.32
2023-02-27T04:44:40.086Z,81.54
2023-02-27T04:47:08.513Z,81.13
2023-02-27T04:49:43.452Z,80.63
2023-02-27T04:52:24.842Z,80.71
2023-02-27T04:55:03.723Z,80.54
2023-02-27T04:57:38.257Z,79.50
2023-02-27T05:00:11.701Z,79.15
2023-02-27T05:02:43.901Z,78.14
2023-02-27T05:05:16.346Z,77.56
2023-02-27T05:07:52.200Z,77.06
2023-02-27T05:10:30.699Z,77.30
2023-02-27T05:13:02.225Z,77.38
2023-02-27T05:15:36.782Z,77.38
2023-02-27T05:18:09.557Z,77.48
2023-02-27T05:21:02.029Z,77.49
2023-02-27T05:23:39.471Z,76.55
2023-02-27T05:26:46.735Z,76.37
2023-02-27T05:29:36.160Z,75.92
2023-02-27T05:32:21.357Z,76.30
2023-02-27T05:34:58.363Z,76.08
2023-02-27T05:37:48.028Z,75.61
2023-02-27T05:42:55.789Z,74.44
2023-02-27T05:45:25.656Z,74.06
2023-02-27T05:48:04.219Z,74.33
2023-02-27T05:50:34.090Z,74.82
2023-02-27T05:53:04.722Z,74.81
2023-02-27T05:55:37.842Z,74.99
2023-02-27T05:58:07.805Z,75.37
2023-02-27T06:00:43.232Z,75.26
2023-02-27T06:03:10.441Z,74.26
2023-02-27T06:05:41.345Z,73.22
2023-02-27T06:08:08.038Z,72.48
2023-02-27T06:10:34.735Z,70.96
2023-02-27T06:13:01.383Z,69.75
2023-02-27T06:15:28.449Z,69.34
2023-02-27T06:17:56.326Z,69.62
2023-02-27T06:20:22.879Z,70.07
2023-02-27T06:22:49.484Z,70.32
2023-02-27T06:25:16.083Z,70.90
2023-02-27T06:27:42.696Z,70.97
2023-02-27T06:30:09.925Z,70.73
2023-02-27T06:32:36.417Z,70.38
2023-02-27T06:35:03.098Z,70.33
2023-02-27T06:37:29.588Z,69.79
2023-02-27T06:39:56.155Z,69.76
2023-02-27T06:42:22.722Z,69.04
2023-02-27T06:44:49.509Z,68.76
2023-02-27T06:47:17.145Z,68.93
2023-02-27T06:49:43.906Z,69.89
2023-02-27T06:52:10.411Z,69.41
2023-02-27T06:54:36.947Z,70.17
2023-02-27T06:57:03.997Z,70.28
2023-02-27T06:59:30.814Z,71.23
2023-02-27T07:01:59.210Z,71.43
2023-02-27T07:04:25.784Z,72.38
2023-02-27T07:07:34.860Z,73.18
2023-02-27T07:09:39.398Z,72.69
2023-02-27T07:12:06.453Z,73.37
2023-02-27T07:14:33.084Z,73.04
2023-02-27T07:17:03.372Z,74.40
2023-02-27T07:19:31.271Z,74.13
2023-02-27T07:21:58.101Z,73.84
2023-02-27T07:24:24.593Z,73.36
2023-02-27T07:26:51.265Z,74.12
2023-02-27T07:29:17.976Z,74.49
2023-02-27T07:31:44.541Z,74.20
2023-02-27T07:34:11.962Z,61.64
2023-02-27T07:36:39.270Z,27.31
2023-02-27T07:39:06.708Z,81.41
2023-02-27T07:41:33.283Z,92.64
2023-02-27T07:44:00.268Z,89.16
2023-02-27T07:46:27.585Z,83.46
2023-02-27T07:48:54.752Z,79.04
2023-02-27T07:51:21.633Z,73.08
2023-02-27T07:53:48.097Z,67.78
2023-02-27T07:56:14.647Z,64.36
2023-02-27T07:58:41.110Z,61.25
2023-02-27T08:01:07.720Z,58.87
2023-02-27T08:03:34.293Z,55.99
2023-02-27T08:06:02.325Z,56.59
2023-02-27T08:08:29.789Z,53.45
2023-02-27T08:10:56.489Z,52.96
2023-02-27T08:13:35.987Z,53.54
2023-02-27T08:16:09.802Z,52.11
2023-02-27T08:18:36.456Z,50.54
2023-02-27T08:21:05.007Z,49.12
2023-02-27T08:23:32.509Z,50.21
2023-02-27T08:25:59.120Z,52.17
2023-02-27T08:28:25.813Z,52.79
2023-02-27T08:30:52.329Z,53.70
2023-02-27T08:33:18.870Z,53.55
2023-02-27T08:35:45.591Z,52.92
2023-02-27T08:38:12.087Z,54.94
2023-02-27T08:40:38.918Z,55.23
2023-02-27T08:43:05.518Z,55.98
2023-02-27T08:45:32.112Z,56.47
2023-02-27T08:47:58.684Z,55.08
2023-02-27T08:50:25.278Z,54.97
2023-02-27T08:52:51.823Z,55.04
2023-02-27T08:55:18.480Z,53.76
2023-02-27T08:57:45.002Z,52.34
2023-02-27T09:00:14.664Z,50.08
2023-02-27T09:02:41.616Z,49.41
2023-02-27T09:05:08.746Z,50.68
2023-02-27T09:07:35.310Z,50.11
2023-02-27T09:10:01.846Z,51.39
2023-02-27T09:12:28.331Z,48.13
2023-02-27T09:14:54.803Z,49.24
2023-02-27T09:17:21.665Z,49.19
2023-02-27T09:19:48.221Z,51.97
2023-02-27T09:22:14.795Z,51.05
2023-02-27T09:24:41.270Z,52.03
2023-02-27T09:27:07.866Z,53.48
2023-02-27T09:29:34.475Z,53.89
2023-02-27T09:32:01.289Z,52.92
2023-02-27T09:34:28.059Z,52.54
2023-02-27T09:36:54.623Z,52.82
2023-02-27T09:39:21.459Z,55.22
2023-02-27T09:42:00.679Z,57.04
2023-02-27T09:44:47.028Z,58.04
2023-02-27T09:47:39.876Z,59.19
2023-02-27T09:50:07.736Z,58.82
2023-02-27T09:52:36.855Z,58.92
2023-02-27T09:55:11.843Z,57.94
2023-02-27T09:57:49.709Z,57.91
2023-02-27T10:00:41.618Z,59.66
2023-02-27T10:03:25.348Z,58.67
2023-02-27T10:06:17.665Z,58.89
2023-02-27T10:09:04.930Z,59.40
2023-02-27T10:11:37.683Z,58.26
2023-02-27T10:14:29.592Z,58.10
2023-02-27T10:16:58.237Z,57.99
2023-02-27T10:19:32.234Z,58.25
2023-02-27T10:22:03.548Z,57.63
2023-02-27T10:24:35.612Z,57.79
2023-02-27T10:27:05.840Z,57.70
2023-02-27T10:29:36.618Z,58.03
2023-02-27T10:32:10.595Z,57.63
2023-02-27T10:34:39.653Z,58.73
2023-02-27T10:37:07.532Z,58.88
2023-02-27T10:39:46.418Z,56.49
2023-02-27T10:42:16.329Z,56.10
2023-02-27T10:44:42.976Z,54.38
2023-02-27T10:47:21.019Z,52.32
2023-02-27T10:49:48.511Z,52.82
2023-02-27T10:52:16.316Z,52.45
2023-02-27T10:54:43.953Z,50.73
2023-02-27T10:57:26.661Z,50.76
2023-02-27T10:59:59.895Z,52.39
2023-02-27T11:02:41.801Z,51.98
2023-02-27T11:05:31.191Z,52.41
2023-02-27T11:08:12.927Z,52.10
2023-02-27T11:11:06.484Z,51.34
2023-02-27T11:13:41.525Z,51.70
2023-02-27T11:16:21.749Z,52.54
2023-02-27T11:18:50.105Z,53.90
2023-02-27T11:21:20.632Z,53.54
2023-02-27T11:23:55.038Z,53.07
2023-02-27T11:26:33.937Z,51.65
2023-02-27T11:29:07.464Z,53.02
2023-02-27T11:31:38.834Z,53.33
2023-02-27T11:34:08.222Z,51.17
2023-02-27T11:36:44.539Z,52.07
2023-02-27T11:39:39.614Z,51.23
2023-02-27T11:42:37.039Z,51.36
2023-02-27T11:46:09.457Z,50.85
2023-02-27T11:48:18.209Z,50.73
2023-02-27T11:51:06.782Z,52.12
2023-02-27T11:53:52.704Z,51.63
2023-02-27T11:56:36.075Z,49.68
2023-02-27T11:59:12.323Z,51.70
2023-02-27T12:01:46.752Z,51.63
2023-02-27T12:04:41.964Z,51.95
2023-02-27T12:07:40.850Z,50.73
2023-02-27T12:10:18.921Z,50.75
2023-02-27T12:13:04.074Z,50.36
2023-02-27T12:15:42.763Z,50.21
2023-02-27T12:18:15.114Z,51.65
2023-02-27T12:20:52.375Z,49.12
2023-02-27T12:23:33.051Z,50.53
2023-02-27T12:26:25.335Z,50.02
2023-02-27T12:29:13.098Z,49.21
2023-02-27T12:31:49.704Z,50.80
2023-02-27T12:34:44.221Z,50.33
2023-02-27T12:37:15.302Z,49.71
2023-02-27T12:39:44.620Z,51.71
2023-02-27T12:42:25.510Z,50.51
2023-02-27T12:45:04.265Z,50.42
2023-02-27T12:47:40.351Z,49.67
2023-02-27T12:50:22.530Z,49.96
2023-02-27T12:53:26.841Z,51.25
2023-02-27T12:56:00.688Z,51.32
2023-02-27T12:58:34.711Z,52.32
2023-02-27T13:01:19.847Z,53.32
2023-02-27T13:03:56.523Z,53.10
2023-02-27T13:06:41.807Z,53.56
2023-02-27T13:09:20.071Z,53.25
2023-02-27T13:11:49.389Z,53.79
2023-02-27T13:14:31.408Z,54.09
2023-02-27T13:17:10.688Z,54.88
2023-02-27T13:19:50.214Z,55.07
2023-02-27T13:22:23.647Z,53.69
2023-02-27T13:24:51.725Z,53.25
2023-02-27T13:27:33.714Z,54.17
2023-02-27T13:30:03.244Z,55.00
2023-02-27T13:32:47.190Z,55.20
2023-02-27T13:35:29.074Z,56.39
2023-02-27T13:37:58.481Z,55.83
2023-02-27T13:40:37.291Z,57.11
2023-02-27T13:43:28.715Z,56.84
2023-02-27T13:46:01.617Z,56.86
2023-02-27T13:48:42.537Z,56.59
2023-02-27T13:51:30.389Z,56.06
2023-02-27T13:54:15.380Z,55.25
2023-02-27T13:56:50.580Z,54.70
2023-02-27T13:59:36.740Z,54.78
2023-02-27T14:02:21.894Z,54.29
2023-02-27T14:04:52.589Z,54.90
2023-02-27T14:07:26.434Z,54.20
2023-02-27T14:10:11.115Z,55.51
2023-02-27T14:12:47.866Z,55.56
2023-02-27T14:15:17.452Z,55.67
2023-02-27T14:17:46.428Z,54.18
2023-02-27T14:20:29.969Z,53.78
2023-02-27T14:23:14.925Z,54.51
2023-02-27T14:25:53.305Z,54.71
2023-02-27T14:28:32.311Z,54.33
2023-02-27T14:31:07.152Z,54.44
2023-02-27T14:33:41.640Z,54.10
2023-02-27T14:36:15.962Z,54.06
2023-02-27T14:38:42.795Z,53.80
2023-02-27T14:41:37.866Z,53.93
2023-02-27T14:44:05.094Z,53.43
2023-02-27T14:46:36.459Z,54.18
2023-02-27T14:49:06.331Z,54.31
2023-02-27T14:51:35.999Z,54.90
2023-02-27T14:54:13.167Z,55.04
2023-02-27T14:56:40.060Z,54.67
2023-02-27T14:59:29.752Z,55.08
2023-02-27T15:01:59.058Z,55.12
2023-02-27T15:04:31.216Z,56.08
2023-02-27T15:06:59.664Z,56.40
2023-02-27T15:09:43.482Z,56.25
2023-02-27T15:12:21.311Z,56.21
2023-02-27T15:14:51.968Z,55.55
2023-02-27T15:17:25.096Z,56.39
2023-02-27T15:19:54.239Z,54.44
2023-02-27T15:22:38.443Z,54.86
2023-02-27T15:25:08.079Z,54.65
2023-02-27T15:27:37.430Z,54.08
2023-02-27T15:30:04.996Z,55.44
2023-02-27T15:32:35.989Z,56.01
2023-02-27T15:35:15.811Z,56.34
2023-02-27T15:37:56.012Z,56.96
2023-02-27T15:40:28.509Z,57.73
2023-02-27T15:42:55.976Z,57.33
2023-02-27T15:45:27.750Z,58.06
2023-02-27T15:47:55.262Z,57.02
2023-02-27T15:50:25.655Z,57.22
2023-02-27T15:52:58.751Z,56.82
2023-02-27T15:55:29.198Z,56.75
2023-02-27T15:58:03.144Z,57.15
2023-02-27T16:00:31.820Z,57.64
2023-02-27T16:02:59.865Z,57.81
2023-02-27T16:05:39.122Z,58.52
2023-02-27T16:08:06.871Z,58.93
2023-02-27T16:10:41.687Z,59.08
2023-02-27T16:13:37.023Z,59.66
2023-02-27T16:16:05.142Z,59.15
2023-02-27T16:18:51.591Z,59.20
2023-02-27T16:21:26.607Z,59.27
2023-02-27T16:23:53.934Z,58.96
2023-02-27T16:26:33.017Z,60.04
2023-02-27T16:29:21.391Z,59.91
2023-02-27T16:31:58.212Z,60.83
2023-02-27T16:34:46.522Z,60.09
2023-02-27T16:37:19.918Z,60.82
2023-02-27T16:39:46.898Z,60.42
2023-02-27T16:42:13.478Z,61.13
2023-02-27T16:44:40.273Z,60.81
2023-02-27T16:47:06.840Z,61.20
2023-02-27T16:49:33.761Z,61.11
2023-02-27T16:52:01.966Z,61.12
2023-02-27T16:54:28.748Z,61.74
2023-02-27T16:56:55.351Z,62.01
2023-02-27T16:59:31.331Z,62.80
2023-02-27T17:01:58.990Z,63.28
2023-02-27T17:04:26.680Z,62.99
2023-02-27T17:06:54.487Z,63.41
2023-02-27T17:09:21.298Z,63.50
2023-02-27T17:11:49.149Z,64.01
2023-02-27T17:14:16.281Z,64.17
2023-02-27T17:16:42.847Z,65.12
2023-02-27T17:19:09.448Z,65.33
2023-02-27T17:21:36.202Z,65.11
2023-02-27T17:24:04.470Z,65.11
2023-02-27T17:26:31.257Z,65.31
2023-02-27T17:28:58.526Z,66.01
2023-02-27T17:31:25.715Z,65.93
2023-02-27T17:33:53.781Z,66.92
2023-02-27T17:36:23.782Z,67.51
2023-02-27T17:39:02.962Z,67.55
2023-02-27T17:41:31.913Z,67.94
2023-02-27T17:43:59.208Z,68.48
2023-02-27T17:46:27.783Z,68.15
2023-02-27T17:48:56.383Z,68.67
2023-02-27T17:51:22.956Z,69.03
2023-02-27T17:53:49.548Z,69.98
2023-02-27T17:56:16.148Z,70.24
2023-02-27T17:58:45.387Z,70.65
2023-02-27T18:01:20.459Z,70.78
2023-02-27T18:03:47.677Z,70.63
2023-02-27T18:06:14.689Z,71.79
2023-02-27T18:08:41.338Z,71.90
2023-02-27T18:11:12.794Z,72.51
2023-02-27T18:13:40.956Z,72.25
2023-02-27T18:16:09.102Z,72.57
2023-02-27T18:18:37.562Z,72.68
2023-02-27T18:21:10.977Z,72.96
2023-02-27T18:23:38.268Z,73.55
2023-02-27T18:26:05.296Z,74.01
2023-02-27T18:28:31.845Z,74.11
2023-02-27T18:30:58.559Z,74.26
2023-02-27T18:33:25.378Z,75.30
2023-02-27T18:35:52.063Z,75.72
2023-02-27T18:38:18.951Z,75.99
2023-02-27T18:40:45.527Z,76.37
2023-02-27T18:43:13.863Z,76.49
2023-02-27T18:45:41.515Z,76.69
2023-02-27T18:48:08.830Z,76.81
2023-02-27T18:50:35.899Z,76.71
2023-02-27T18:53:02.486Z,77.17
2023-02-27T18:55:29.101Z,77.42
2023-02-27T18:57:55.634Z,77.83
2023-02-27T19:00:24.148Z,77.75
2023-02-27T19:02:50.923Z,78.50
2023-02-27T19:05:17.649Z,78.31
2023-02-27T19:07:44.313Z,78.35
2023-02-27T19:10:11.523Z,78.51
2023-02-27T19:12:38.069Z,79.11
2023-02-27T19:15:05.455Z,79.99
2023-02-27T19:17:32.455Z,79.38
2023-02-27T19:19:59.668Z,79.98
2023-02-27T19:22:30.425Z,80.55
2023-02-27T19:24:57.257Z,80.99
2023-02-27T19:27:24.285Z,81.44
2023-02-27T19:29:51.249Z,82.11
2023-02-27T19:32:18.219Z,81.99
2023-02-27T19:34:44.867Z,83.09
2023-02-27T19:37:11.532Z,82.27
2023-02-27T19:39:38.118Z,83.09
2023-02-27T19:42:04.806Z,83.83
2023-02-27T19:44:31.423Z,84.18
2023-02-27T19:46:57.998Z,83.86
2023-02-27T19:49:24.526Z,84.14
2023-02-27T19:51:51.010Z,84.58
2023-02-27T19:54:17.677Z,84.89
2023-02-27T19:56:44.622Z,85.02
2023-02-27T19:59:12.493Z,85.46
2023-02-27T20:01:39.424Z,85.36
2023-02-27T20:04:07.541Z,86.01
2023-02-27T20:06:42.321Z,86.13
2023-02-27T20:09:13.032Z,86.12
2023-02-27T20:11:40.326Z,86.29
2023-02-27T20:14:07.502Z,86.36
2023-02-27T20:16:36.816Z,86.40
2023-02-27T20:19:10.105Z,87.10
2023-02-27T20:21:36.952Z,86.86
2023-02-27T20:24:03.808Z,86.95
2023-02-27T20:26:33.457Z,87.15
2023-02-27T20:29:02.860Z,87.57
2023-02-27T20:31:31.262Z,88.02
2023-02-27T20:34:00.875Z,87.94
2023-02-27T20:36:28.272Z,88.03
2023-02-27T20:38:55.514Z,88.61
2023-02-27T20:41:23.571Z,88.36
2023-02-27T20:43:50.356Z,88.91
2023-02-27T20:46:20.582Z,88.82
2023-02-27T20:48:47.522Z,89.01
2023-02-27T20:51:20.349Z,89.89
2023-02-27T20:53:49.847Z,89.50
2023-02-27T20:56:20.303Z,90.32
2023-02-27T20:58:47.223Z,90.29
2023-02-27T21:01:15.340Z,90.22
2023-02-27T21:03:43.391Z,90.70
2023-02-27T21:06:12.389Z,91.03
2023-02-27T21:08:41.522Z,90.63
2023-02-27T21:11:17.750Z,91.16
2023-02-27T21:13:46.015Z,91.43
2023-02-27T21:16:14.921Z,90.83
2023-02-27T21:18:42.903Z,91.21
2023-02-27T21:21:13.162Z,91.09
2023-02-27T21:23:42.629Z,91.24
2023-02-27T21:26:16.095Z,90.96
2023-02-27T21:28:47.646Z,91.20
2023-02-27T21:31:15.780Z,91.37
2023-02-27T21:33:42.902Z,91.46
2023-02-27T21:36:11.102Z,91.21
2023-02-27T21:38:38.991Z,91.79
2023-02-27T21:41:11.822Z,91.88
2023-02-27T21:43:42.380Z,91.97
2023-02-27T21:46:11.897Z,92.09
2023-02-27T21:48:39.324Z,91.92
2023-02-27T21:51:06.770Z,92.08
2023-02-27T21:53:33.483Z,91.93
2023-02-27T21:56:05.857Z,92.07
2023-02-27T21:58:33.060Z,92.02
2023-02-27T22:00:59.819Z,92.02
2023-02-27T22:03:34.252Z,91.78
2023-02-27T22:06:01.771Z,91.90
2023-02-27T22:08:28.712Z,91.91
2023-02-27T22:10:57.325Z,91.90
2023-02-27T22:13:24.358Z,91.00
2023-02-27T22:15:51.384Z,91.41
2023-02-27T22:18:18.057Z,91.64
2023-02-27T22:20:44.554Z,90.86
2023-02-27T22:23:11.458Z,91.10
2023-02-27T22:25:38.383Z,91.38
2023-02-27T22:28:05.275Z,91.64
2023-02-27T22:30:31.802Z,90.78
2023-02-27T22:32:58.381Z,91.37
2023-02-27T22:35:25.127Z,90.80
2023-02-27T22:37:51.734Z,91.16
2023-02-27T22:40:18.697Z,90.58
2023-02-27T22:42:45.386Z,90.67
2023-02-27T22:45:12.446Z,90.23
2023-02-27T22:47:39.077Z,89.51
2023-02-27T22:50:06.197Z,88.49
2023-02-27T22:52:35.762Z,88.44
2023-02-27T22:55:03.447Z,87.77
2023-02-27T22:57:30.049Z,88.06
2023-02-27T22:59:56.560Z,88.38
2023-02-27T23:02:23.110Z,88.21
2023-02-27T23:04:49.599Z,88.15
2023-02-27T23:07:16.448Z,87.81
2023-02-27T23:09:43.780Z,87.59
2023-02-27T23:12:10.244Z,87.13
2023-02-27T23:14:36.693Z,87.14
2023-02-27T23:17:03.214Z,87.21
2023-02-27T23:19:29.755Z,86.60
2023-02-27T23:21:56.216Z,86.34
2023-02-27T23:24:22.694Z,86.60
2023-02-27T23:26:52.134Z,86.38
2023-02-27T23:29:19.389Z,85.60
2023-02-27T23:31:45.996Z,85.39
2023-02-27T23:34:12.582Z,85.62
2023-02-27T23:36:39.152Z,84.36
2023-02-27T23:39:07.102Z,84.22
2023-02-27T23:41:33.801Z,83.52
2023-02-27T23:44:19.322Z,82.86
2023-02-27T23:46:45.876Z,82.15
2023-02-27T23:49:12.370Z,82.77
2023-02-27T23:51:38.898Z,82.17
2023-02-27T23:54:05.403Z,82.47
2023-02-27T23:56:31.981Z,83.06
2023-02-27T23:59:01.776Z,83.24
